Rikiei No.8 — JD4201 — position and weather

sailwx.info

Track history (hours):
 
Tides and Currents Weather Stations Pressure Air Temp Water Temp Dewpoint Dewpoint Depression Visibility Wind Speed Wind Dir Waves Ship Positions

Rikiei No.8

Last reported at 2018-Jul-16 13:10 UTC. Time now 2018-Jul-16 14:40 UTC.
Position N 34°57' E 139°17'.

Length 80 m; draft 5.3 m.

Type: Cargo ship. MMSI: 431009718.

Date/timePositionNaut miles runAvg speedWind from/ knotsBaromVisibWave heightAir tempDewpointWater temp
2018-Jul-16 13:10N 34°57' E 139°17'212.0
2018-Jul-16 13:00N 34°58' E 139°18'711.0
2018-Jul-16 12:23N 35°02' E 139°25'410.8
2018-Jul-16 12:00N 35°04' E 139°30'612.2
2018-Jul-16 11:30N 35°06' E 139°37'611.9
2018-Jul-16 11:01N 35°09' E 139°43'611.3
2018-Jul-16 10:31N 35°14' E 139°46'611.3
2018-Jul-16 10:01N 35°19' E 139°43'611.1
2018-Jul-16 09:30N 35°24' E 139°42'5 9.4
2018-Jul-16 09:00N 35°29' E 139°40'0 0.1
2018-Jul-16 08:30N 35°29' E 139°40'0 0.0
2018-Jul-16 08:00N 35°29' E 139°40'0 0.0
2018-Jul-16 07:30N 35°29' E 139°40'0 0.0
2018-Jul-16 07:00N 35°29' E 139°40'0 0.0
2018-Jul-16 06:30N 35°29' E 139°40'0 0.0
2018-Jul-16 06:00N 35°29' E 139°40'0 0.0
2018-Jul-16 05:30N 35°29' E 139°40'0 0.0
2018-Jul-16 05:00N 35°29' E 139°40'0 0.0
2018-Jul-16 04:30N 35°29' E 139°40'0 0.0
2018-Jul-16 04:00N 35°29' E 139°40'3 5.3
2018-Jul-16 03:30N 35°27' E 139°42'5 9.3
2018-Jul-16 03:01N 35°23' E 139°39'0 0.2
2018-Jul-16 02:30N 35°22' E 139°39'0 0.0
2018-Jul-16 02:00N 35°22' E 139°39'0 0.0
2018-Jul-16 01:30N 35°22' E 139°39'0 0.0
2018-Jul-16 01:00N 35°22' E 139°39'0 0.0
2018-Jul-16 00:30N 35°22' E 139°39'0 0.0
2018-Jul-16 00:00N 35°22' E 139°39'0 0.0
2018-Jul-15 23:30N 35°22' E 139°39'0 0.0
2018-Jul-15 06:51N 35°22' E 139°39'1 3.0
2018-Jul-15 06:30N 35°23' E 139°40'612.0
2018-Jul-15 06:01N 35°18' E 139°45'612.9
2018-Jul-15 05:30N 35°12' E 139°47'612.3
2018-Jul-15 05:00N 35°06' E 139°45'612.6
2018-Jul-15 04:30N 35°01' E 139°40'915.1
2018-Jul-15 03:54N 34°57' E 139°30'616.1
2018-Jul-15 03:30N 34°53' E 139°24'  
2018-Jul-11 03:59N 34°23' E 134°20'2710.8
2018-Jul-11 01:33N 34°07' E 134°46'1 9.7
2018-Jul-11 01:29N 34°07' E 134°47'710.0
2018-Jul-11 00:49N 34°02' E 134°52'310.4
2018-Jul-11 00:30N 33°59' E 134°54'611.7
2018-Jul-10 23:59N 33°54' E 134°59'214 5.6
2018-Jul-09 09:55N 34°50' E 139°09'511.4
2018-Jul-09 09:27N 34°54' E 139°13'611.1
2018-Jul-09 08:55N 34°58' E 139°19'410.3
2018-Jul-09 08:29N 34°60' E 139°24'510.9
2018-Jul-09 08:00N 35°02' E 139°29'611.9
2018-Jul-09 07:30N 35°05' E 139°36'713.3
2018-Jul-09 07:00N 35°08' E 139°43'612.3
2018-Jul-09 06:30N 35°14' E 139°46'612.2
2018-Jul-09 06:00N 35°19' E 139°43'611.9
2018-Jul-09 05:30N 35°25' E 139°42'4 7.8
2018-Jul-09 05:00N 35°29' E 139°40'0 0.0
2018-Jul-09 04:30N 35°29' E 139°40'0 0.0
2018-Jul-08 23:02N 35°29' E 139°40'0 0.0
2018-Jul-08 23:00N 35°29' E 139°40'3 5.2
2018-Jul-08 22:30N 35°27' E 139°42'5 9.8
2018-Jul-08 22:00N 35°29' E 139°47'3 6.3
2018-Jul-08 21:30N 35°31' E 139°50'0 0.0
2018-Jul-08 21:00N 35°31' E 139°50'0 0.0
2018-Jul-08 19:42N 35°31' E 139°50'0 0.0
2018-Jul-08 19:30N 35°31' E 139°50'0 0.0
2018-Jul-08 19:00N 35°31' E 139°50'0 0.0
2018-Jul-08 18:22N 35°31' E 139°50'0 0.0
2018-Jul-08 18:00N 35°31' E 139°50'0 0.0
2018-Jul-08 17:30N 35°31' E 139°50'0 0.0
2018-Jul-08 16:32N 35°31' E 139°50'0 0.1
2018-Jul-08 16:29N 35°31' E 139°50'0 0.0
2018-Jul-08 16:00N 35°31' E 139°50'0 0.0
2018-Jul-08 15:30N 35°31' E 139°50'0 0.0
2018-Jul-08 15:00N 35°31' E 139°50'0 0.1
2018-Jul-08 14:30N 35°31' E 139°50'0 0.0
2018-Jul-08 14:00N 35°31' E 139°50'0 0.0
2018-Jul-08 13:30N 35°31' E 139°50'0 0.0
2018-Jul-08 13:00N 35°31' E 139°50'0 0.0
2018-Jul-08 12:30N 35°31' E 139°50'0 0.0
2018-Jul-08 12:00N 35°31' E 139°50'0 0.0
2018-Jul-08 11:30N 35°31' E 139°50'0 0.0
2018-Jul-08 11:00N 35°31' E 139°50'0 0.0
2018-Jul-08 10:30N 35°31' E 139°50'0 0.0
2018-Jul-08 10:00N 35°31' E 139°50'0 0.0
2018-Jul-08 09:30N 35°31' E 139°50'0 0.0
2018-Jul-08 09:00N 35°31' E 139°50'0 0.0
2018-Jul-08 08:30N 35°31' E 139°50'0 0.0
2018-Jul-08 08:00N 35°31' E 139°50'0 0.0
2018-Jul-08 07:30N 35°31' E 139°50'0 0.0
2018-Jul-08 07:00N 35°31' E 139°50'0 0.0
2018-Jul-08 06:30N 35°31' E 139°50'0 0.0
2018-Jul-08 06:00N 35°31' E 139°50'1 2.1
2018-Jul-08 05:30N 35°32' E 139°50'4 0.9
2018-Jul-08 00:17N 35°35' E 139°46'1 4.2
2018-Jul-08 00:00N 35°35' E 139°48'611.1
2018-Jul-07 23:30N 35°30' E 139°52'612.4
2018-Jul-07 23:00N 35°25' E 139°47'612.4
2018-Jul-07 22:30N 35°20' E 139°44'611.4
2018-Jul-07 22:00N 35°14' E 139°47'612.0
2018-Jul-07 21:30N 35°08' E 139°46'612.4
2018-Jul-07 21:00N 35°03' E 139°43'713.2
2018-Jul-07 20:30N 34°59' E 139°36'1014.8
2018-Jul-07 19:49N 34°54' E 139°25'22611.3
2018-Jul-06 23:47N 33°46' E 135°04'311.4
2018-Jul-06 23:30N 33°48' E 135°01'511.0
2018-Jul-06 23:00N 33°51' E 134°56'910.1
2018-Jul-06 22:07N 33°57' E 134°48'111.0
2018-Jul-06 22:00N 33°58' E 134°47'14 3.4
2018-Jul-06 17:52N 34°11' E 134°40'910.0
2018-Jul-06 17:00N 34°17' E 134°33'811.1
2018-Jul-06 16:18N 34°20' E 134°25'311.2
2018-Jul-06 16:00N 34°21' E 134°21'  
Track history (hours):
 
Tides and Currents Weather Stations Pressure Air Temp Water Temp Dewpoint Dewpoint Depression Visibility Wind Speed Wind Dir Waves Ship Positions

Rikiei No.8

Last reported at 2018-Jul-16 13:10 UTC. Time now 2018-Jul-16 14:40 UTC.
Position N 34°57' E 139°17'.

Length 80 m; draft 5.3 m.

Type: Cargo ship. MMSI: 431009718.

Date/timePositionNaut miles runAvg speedWind from/ knotsBaromVisibWave heightAir tempDewpointWater temp
2018-Jul-16 13:10N 34°57' E 139°17'212.0
2018-Jul-16 13:00N 34°58' E 139°18'711.0
2018-Jul-16 12:23N 35°02' E 139°25'410.8
2018-Jul-16 12:00N 35°04' E 139°30'612.2
2018-Jul-16 11:30N 35°06' E 139°37'611.9
2018-Jul-16 11:01N 35°09' E 139°43'611.3
2018-Jul-16 10:31N 35°14' E 139°46'611.3
2018-Jul-16 10:01N 35°19' E 139°43'611.1
2018-Jul-16 09:30N 35°24' E 139°42'5 9.4
2018-Jul-16 09:00N 35°29' E 139°40'0 0.1
2018-Jul-16 08:30N 35°29' E 139°40'0 0.0
2018-Jul-16 08:00N 35°29' E 139°40'0 0.0
2018-Jul-16 07:30N 35°29' E 139°40'0 0.0
2018-Jul-16 07:00N 35°29' E 139°40'0 0.0
2018-Jul-16 06:30N 35°29' E 139°40'0 0.0
2018-Jul-16 06:00N 35°29' E 139°40'0 0.0
2018-Jul-16 05:30N 35°29' E 139°40'0 0.0
2018-Jul-16 05:00N 35°29' E 139°40'0 0.0
2018-Jul-16 04:30N 35°29' E 139°40'0 0.0
2018-Jul-16 04:00N 35°29' E 139°40'3 5.3
2018-Jul-16 03:30N 35°27' E 139°42'5 9.3
2018-Jul-16 03:01N 35°23' E 139°39'0 0.2
2018-Jul-16 02:30N 35°22' E 139°39'0 0.0
2018-Jul-16 02:00N 35°22' E 139°39'0 0.0
2018-Jul-16 01:30N 35°22' E 139°39'0 0.0
2018-Jul-16 01:00N 35°22' E 139°39'0 0.0
2018-Jul-16 00:30N 35°22' E 139°39'0 0.0
2018-Jul-16 00:00N 35°22' E 139°39'0 0.0
2018-Jul-15 23:30N 35°22' E 139°39'0 0.0
2018-Jul-15 06:51N 35°22' E 139°39'1 3.0
2018-Jul-15 06:30N 35°23' E 139°40'612.0
2018-Jul-15 06:01N 35°18' E 139°45'612.9
2018-Jul-15 05:30N 35°12' E 139°47'612.3
2018-Jul-15 05:00N 35°06' E 139°45'612.6
2018-Jul-15 04:30N 35°01' E 139°40'915.1
2018-Jul-15 03:54N 34°57' E 139°30'616.1
2018-Jul-15 03:30N 34°53' E 139°24'  
2018-Jul-11 03:59N 34°23' E 134°20'2710.8
2018-Jul-11 01:33N 34°07' E 134°46'1 9.7
2018-Jul-11 01:29N 34°07' E 134°47'710.0
2018-Jul-11 00:49N 34°02' E 134°52'310.4
2018-Jul-11 00:30N 33°59' E 134°54'611.7
2018-Jul-10 23:59N 33°54' E 134°59'214 5.6
2018-Jul-09 09:55N 34°50' E 139°09'511.4
2018-Jul-09 09:27N 34°54' E 139°13'611.1
2018-Jul-09 08:55N 34°58' E 139°19'410.3
2018-Jul-09 08:29N 34°60' E 139°24'510.9
2018-Jul-09 08:00N 35°02' E 139°29'611.9
2018-Jul-09 07:30N 35°05' E 139°36'713.3
2018-Jul-09 07:00N 35°08' E 139°43'612.3
2018-Jul-09 06:30N 35°14' E 139°46'612.2
2018-Jul-09 06:00N 35°19' E 139°43'611.9
2018-Jul-09 05:30N 35°25' E 139°42'4 7.8
2018-Jul-09 05:00N 35°29' E 139°40'0 0.0
2018-Jul-09 04:30N 35°29' E 139°40'0 0.0
2018-Jul-08 23:02N 35°29' E 139°40'0 0.0
2018-Jul-08 23:00N 35°29' E 139°40'3 5.2
2018-Jul-08 22:30N 35°27' E 139°42'5 9.8
2018-Jul-08 22:00N 35°29' E 139°47'3 6.3
2018-Jul-08 21:30N 35°31' E 139°50'0 0.0
2018-Jul-08 21:00N 35°31' E 139°50'0 0.0
2018-Jul-08 19:42N 35°31' E 139°50'0 0.0
2018-Jul-08 19:30N 35°31' E 139°50'0 0.0
2018-Jul-08 19:00N 35°31' E 139°50'0 0.0
2018-Jul-08 18:22N 35°31' E 139°50'0 0.0
2018-Jul-08 18:00N 35°31' E 139°50'0 0.0
2018-Jul-08 17:30N 35°31' E 139°50'0 0.0
2018-Jul-08 16:32N 35°31' E 139°50'0 0.1
2018-Jul-08 16:29N 35°31' E 139°50'0 0.0
2018-Jul-08 16:00N 35°31' E 139°50'0 0.0
2018-Jul-08 15:30N 35°31' E 139°50'0 0.0
2018-Jul-08 15:00N 35°31' E 139°50'0 0.1
2018-Jul-08 14:30N 35°31' E 139°50'0 0.0
2018-Jul-08 14:00N 35°31' E 139°50'0 0.0
2018-Jul-08 13:30N 35°31' E 139°50'0 0.0
2018-Jul-08 13:00N 35°31' E 139°50'0 0.0
2018-Jul-08 12:30N 35°31' E 139°50'0 0.0
2018-Jul-08 12:00N 35°31' E 139°50'0 0.0
2018-Jul-08 11:30N 35°31' E 139°50'0 0.0
2018-Jul-08 11:00N 35°31' E 139°50'0 0.0
2018-Jul-08 10:30N 35°31' E 139°50'0 0.0
2018-Jul-08 10:00N 35°31' E 139°50'0 0.0
2018-Jul-08 09:30N 35°31' E 139°50'0 0.0
2018-Jul-08 09:00N 35°31' E 139°50'0 0.0
2018-Jul-08 08:30N 35°31' E 139°50'0 0.0
2018-Jul-08 08:00N 35°31' E 139°50'0 0.0
2018-Jul-08 07:30N 35°31' E 139°50'0 0.0
2018-Jul-08 07:00N 35°31' E 139°50'0 0.0
2018-Jul-08 06:30N 35°31' E 139°50'0 0.0
2018-Jul-08 06:00N 35°31' E 139°50'1 2.1
2018-Jul-08 05:30N 35°32' E 139°50'4 0.9
2018-Jul-08 00:17N 35°35' E 139°46'1 4.2
2018-Jul-08 00:00N 35°35' E 139°48'611.1
2018-Jul-07 23:30N 35°30' E 139°52'612.4
2018-Jul-07 23:00N 35°25' E 139°47'612.4
2018-Jul-07 22:30N 35°20' E 139°44'611.4
2018-Jul-07 22:00N 35°14' E 139°47'612.0
2018-Jul-07 21:30N 35°08' E 139°46'612.4
2018-Jul-07 21:00N 35°03' E 139°43'713.2
2018-Jul-07 20:30N 34°59' E 139°36'1014.8
2018-Jul-07 19:49N 34°54' E 139°25'22611.3
2018-Jul-06 23:47N 33°46' E 135°04'311.4
2018-Jul-06 23:30N 33°48' E 135°01'511.0
2018-Jul-06 23:00N 33°51' E 134°56'910.1
2018-Jul-06 22:07N 33°57' E 134°48'111.0
2018-Jul-06 22:00N 33°58' E 134°47'14 3.4
2018-Jul-06 17:52N 34°11' E 134°40'910.0
2018-Jul-06 17:00N 34°17' E 134°33'811.1
2018-Jul-06 16:18N 34°20' E 134°25'311.2
2018-Jul-06 16:00N 34°21' E 134°21'  

Dump ship's entire track history